sensor_id;sensor_type;location;lat;lon;timestamp;P1;durP1;ratioP1;P2;durP2;ratioP2
6467;SDS011;3267;48.794;9.928;2023-02-15T05:02:23;10.53;;;7.07;;
6467;SDS011;3267;48.794;9.928;2023-02-15T05:04:51;11.67;;;8.40;;
6467;SDS011;3267;48.794;9.928;2023-02-15T05:07:30;13.20;;;8.87;;
6467;SDS011;3267;48.794;9.928;2023-02-15T05:09:58;13.00;;;8.97;;
6467;SDS011;3267;48.794;9.928;2023-02-15T05:12:27;12.23;;;9.23;;
6467;SDS011;3267;48.794;9.928;2023-02-15T05:14:53;11.60;;;8.30;;
6467;SDS011;3267;48.794;9.928;2023-02-15T05:17:28;15.30;;;9.67;;
6467;SDS011;3267;48.794;9.928;2023-02-15T05:20:07;14.73;;;9.07;;
6467;SDS011;3267;48.794;9.928;2023-02-15T05:22:33;15.17;;;9.90;;
6467;SDS011;3267;48.794;9.928;2023-02-15T05:25:02;13.60;;;9.13;;
6467;SDS011;3267;48.794;9.928;2023-02-15T05:27:46;15.13;;;9.53;;
6467;SDS011;3267;48.794;9.928;2023-02-15T05:30:32;15.57;;;9.80;;
6467;SDS011;3267;48.794;9.928;2023-02-15T05:32:58;14.57;;;9.57;;
6467;SDS011;3267;48.794;9.928;2023-02-15T05:35:24;12.47;;;8.80;;
6467;SDS011;3267;48.794;9.928;2023-02-15T05:37:50;11.30;;;8.33;;
6467;SDS011;3267;48.794;9.928;2023-02-15T05:40:16;9.60;;;7.67;;
6467;SDS011;3267;48.794;9.928;2023-02-15T05:42:42;9.30;;;7.67;;
6467;SDS011;3267;48.794;9.928;2023-02-15T05:45:08;9.27;;;7.43;;
6467;SDS011;3267;48.794;9.928;2023-02-15T05:47:34;9.87;;;8.07;;
6467;SDS011;3267;48.794;9.928;2023-02-15T05:50:00;9.93;;;7.57;;
6467;SDS011;3267;48.794;9.928;2023-02-15T05:52:26;10.27;;;7.30;;
6467;SDS011;3267;48.794;9.928;2023-02-15T05:54:52;9.07;;;7.50;;
6467;SDS011;3267;48.794;9.928;2023-02-15T05:57:19;11.37;;;8.53;;
6467;SDS011;3267;48.794;9.928;2023-02-15T05:59:45;10.50;;;7.73;;
6467;SDS011;3267;48.794;9.928;2023-02-15T06:02:11;9.90;;;7.37;;
6467;SDS011;3267;48.794;9.928;2023-02-15T06:04:38;10.43;;;8.37;;
6467;SDS011;3267;48.794;9.928;2023-02-15T06:07:04;11.37;;;9.20;;
6467;SDS011;3267;48.794;9.928;2023-02-15T06:09:30;13.37;;;8.77;;
6467;SDS011;3267;48.794;9.928;2023-02-15T06:11:56;12.07;;;8.83;;
6467;SDS011;3267;48.794;9.928;2023-02-15T06:14:22;9.17;;;7.60;;
6467;SDS011;3267;48.794;9.928;2023-02-15T06:16:48;12.27;;;8.27;;
6467;SDS011;3267;48.794;9.928;2023-02-15T06:19:14;9.80;;;8.60;;
6467;SDS011;3267;48.794;9.928;2023-02-15T06:21:40;9.73;;;8.00;;
6467;SDS011;3267;48.794;9.928;2023-02-15T06:24:07;10.70;;;8.40;;
6467;SDS011;3267;48.794;9.928;2023-02-15T06:26:33;12.33;;;9.63;;
6467;SDS011;3267;48.794;9.928;2023-02-15T06:28:59;12.97;;;10.40;;
6467;SDS011;3267;48.794;9.928;2023-02-15T06:31:26;12.87;;;8.90;;
6467;SDS011;3267;48.794;9.928;2023-02-15T06:33:52;13.33;;;9.47;;
6467;SDS011;3267;48.794;9.928;2023-02-15T06:36:25;11.47;;;8.70;;
6467;SDS011;3267;48.794;9.928;2023-02-15T06:38:51;11.63;;;8.63;;
6467;SDS011;3267;48.794;9.928;2023-02-15T06:41:17;12.10;;;8.47;;
6467;SDS011;3267;48.794;9.928;2023-02-15T06:43:43;10.80;;;8.97;;
6467;SDS011;3267;48.794;9.928;2023-02-15T06:46:09;13.00;;;8.23;;
6467;SDS011;3267;48.794;9.928;2023-02-15T06:48:35;11.37;;;7.73;;
6467;SDS011;3267;48.794;9.928;2023-02-15T06:51:01;8.30;;;6.80;;
6467;SDS011;3267;48.794;9.928;2023-02-15T06:53:27;9.27;;;7.37;;
6467;SDS011;3267;48.794;9.928;2023-02-15T06:55:59;9.30;;;7.73;;
6467;SDS011;3267;48.794;9.928;2023-02-15T06:58:27;10.53;;;8.40;;
6467;SDS011;3267;48.794;9.928;2023-02-15T07:00:53;10.00;;;7.77;;
6467;SDS011;3267;48.794;9.928;2023-02-15T07:03:19;10.73;;;8.00;;
6467;SDS011;3267;48.794;9.928;2023-02-15T07:05:45;9.67;;;8.53;;
6467;SDS011;3267;48.794;9.928;2023-02-15T07:08:13;11.83;;;9.00;;
6467;SDS011;3267;48.794;9.928;2023-02-15T07:10:43;19.00;;;13.53;;
6467;SDS011;3267;48.794;9.928;2023-02-15T07:13:09;18.43;;;13.67;;
6467;SDS011;3267;48.794;9.928;2023-02-15T07:15:35;14.47;;;10.77;;
6467;SDS011;3267;48.794;9.928;2023-02-15T07:18:01;13.03;;;9.93;;
6467;SDS011;3267;48.794;9.928;2023-02-15T07:20:27;10.87;;;8.70;;
6467;SDS011;3267;48.794;9.928;2023-02-15T07:22:54;13.07;;;10.00;;
6467;SDS011;3267;48.794;9.928;2023-02-15T07:25:20;13.53;;;10.30;;
6467;SDS011;3267;48.794;9.928;2023-02-15T07:27:46;13.20;;;9.70;;
6467;SDS011;3267;48.794;9.928;2023-02-15T07:30:13;12.57;;;8.90;;
6467;SDS011;3267;48.794;9.928;2023-02-15T07:32:40;15.43;;;9.30;;
6467;SDS011;3267;48.794;9.928;2023-02-15T07:35:25;14.87;;;11.17;;
6467;SDS011;3267;48.794;9.928;2023-02-15T07:37:51;14.03;;;9.30;;
6467;SDS011;3267;48.794;9.928;2023-02-15T07:40:18;11.37;;;9.13;;
6467;SDS011;3267;48.794;9.928;2023-02-15T07:42:44;10.60;;;7.53;;
6467;SDS011;3267;48.794;9.928;2023-02-15T07:45:10;11.50;;;8.90;;
6467;SDS011;3267;48.794;9.928;2023-02-15T07:47:36;11.03;;;8.70;;
6467;SDS011;3267;48.794;9.928;2023-02-15T07:50:02;11.93;;;9.10;;
6467;SDS011;3267;48.794;9.928;2023-02-15T07:52:28;13.87;;;9.67;;
6467;SDS011;3267;48.794;9.928;2023-02-15T07:54:54;13.13;;;9.07;;
6467;SDS011;3267;48.794;9.928;2023-02-15T07:57:20;13.30;;;8.87;;
6467;SDS011;3267;48.794;9.928;2023-02-15T07:59:46;16.33;;;9.67;;
6467;SDS011;3267;48.794;9.928;2023-02-15T08:02:12;11.03;;;8.23;;
6467;SDS011;3267;48.794;9.928;2023-02-15T08:04:38;12.17;;;8.80;;
6467;SDS011;3267;48.794;9.928;2023-02-15T08:07:04;14.60;;;8.87;;
6467;SDS011;3267;48.794;9.928;2023-02-15T08:09:31;15.73;;;9.17;;
6467;SDS011;3267;48.794;9.928;2023-02-15T08:11:57;18.63;;;9.97;;
6467;SDS011;3267;48.794;9.928;2023-02-15T08:14:23;10.27;;;8.77;;
6467;SDS011;3267;48.794;9.928;2023-02-15T08:16:50;14.37;;;9.20;;
6467;SDS011;3267;48.794;9.928;2023-02-15T08:19:19;10.33;;;8.20;;
6467;SDS011;3267;48.794;9.928;2023-02-15T08:21:48;16.33;;;8.77;;
6467;SDS011;3267;48.794;9.928;2023-02-15T08:24:15;10.80;;;8.87;;
6467;SDS011;3267;48.794;9.928;2023-02-15T08:26:43;10.67;;;9.00;;
6467;SDS011;3267;48.794;9.928;2023-02-15T08:29:10;10.80;;;8.30;;
6467;SDS011;3267;48.794;9.928;2023-02-15T08:31:36;12.03;;;8.93;;
6467;SDS011;3267;48.794;9.928;2023-02-15T08:34:02;10.57;;;8.50;;
6467;SDS011;3267;48.794;9.928;2023-02-15T08:36:29;14.07;;;8.77;;
6467;SDS011;3267;48.794;9.928;2023-02-15T08:38:57;11.53;;;8.80;;
6467;SDS011;3267;48.794;9.928;2023-02-15T08:41:24;10.40;;;8.63;;
6467;SDS011;3267;48.794;9.928;2023-02-15T08:43:52;12.53;;;8.73;;
6467;SDS011;3267;48.794;9.928;2023-02-15T08:46:19;10.60;;;8.70;;
6467;SDS011;3267;48.794;9.928;2023-02-15T08:48:46;10.47;;;7.97;;
6467;SDS011;3267;48.794;9.928;2023-02-15T08:51:13;11.53;;;8.23;;
6467;SDS011;3267;48.794;9.928;2023-02-15T08:53:41;10.37;;;7.93;;
6467;SDS011;3267;48.794;9.928;2023-02-15T08:56:08;12.07;;;8.97;;
6467;SDS011;3267;48.794;9.928;2023-02-15T08:58:34;9.00;;;7.53;;
6467;SDS011;3267;48.794;9.928;2023-02-15T09:01:01;9.03;;;7.13;;
6467;SDS011;3267;48.794;9.928;2023-02-15T09:03:27;9.00;;;8.00;;
6467;SDS011;3267;48.794;9.928;2023-02-15T09:05:57;9.63;;;7.20;;
6467;SDS011;3267;48.794;9.928;2023-02-15T09:08:24;9.87;;;7.00;;
6467;SDS011;3267;48.794;9.928;2023-02-15T09:10:50;9.70;;;7.47;;
6467;SDS011;3267;48.794;9.928;2023-02-15T09:13:16;9.20;;;7.17;;
6467;SDS011;3267;48.794;9.928;2023-02-15T09:15:42;10.23;;;7.90;;
6467;SDS011;3267;48.794;9.928;2023-02-15T09:18:08;10.47;;;8.50;;
6467;SDS011;3267;48.794;9.928;2023-02-15T09:20:35;11.53;;;8.10;;
6467;SDS011;3267;48.794;9.928;2023-02-15T09:23:01;10.30;;;7.83;;
6467;SDS011;3267;48.794;9.928;2023-02-15T09:25:27;9.30;;;7.60;;
6467;SDS011;3267;48.794;9.928;2023-02-15T09:27:53;9.50;;;8.03;;
6467;SDS011;3267;48.794;9.928;2023-02-15T09:30:19;9.90;;;8.27;;
6467;SDS011;3267;48.794;9.928;2023-02-15T09:32:46;11.93;;;7.80;;
6467;SDS011;3267;48.794;9.928;2023-02-15T09:35:12;9.50;;;7.63;;
6467;SDS011;3267;48.794;9.928;2023-02-15T09:37:38;12.57;;;8.83;;
6467;SDS011;3267;48.794;9.928;2023-02-15T09:40:04;10.47;;;8.10;;
6467;SDS011;3267;48.794;9.928;2023-02-15T09:53:34;11.67;;;9.07;;
6467;SDS011;3267;48.794;9.928;2023-02-15T10:07:19;11.33;;;8.43;;
6467;SDS011;3267;48.794;9.928;2023-02-15T10:10:15;9.43;;;8.43;;
6467;SDS011;3267;48.794;9.928;2023-02-15T10:15:31;9.90;;;8.70;;
6467;SDS011;3267;48.794;9.928;2023-02-15T10:21:04;10.63;;;9.50;;
6467;SDS011;3267;48.794;9.928;2023-02-15T10:23:54;11.83;;;9.27;;
6467;SDS011;3267;48.794;9.928;2023-02-15T10:26:35;10.60;;;9.47;;
6467;SDS011;3267;48.794;9.928;2023-02-15T10:31:56;10.07;;;8.25;;
6467;SDS011;3267;48.794;9.928;2023-02-15T10:34:43;13.82;;;9.52;;
6467;SDS011;3267;48.794;9.928;2023-02-15T10:38:00;12.80;;;9.48;;
6467;SDS011;3267;48.794;9.928;2023-02-15T10:51:39;10.07;;;8.52;;
6467;SDS011;3267;48.794;9.928;2023-02-15T11:05:38;9.73;;;8.40;;
6467;SDS011;3267;48.794;9.928;2023-02-15T11:08:16;10.63;;;9.07;;
6467;SDS011;3267;48.794;9.928;2023-02-15T11:10:47;15.63;;;8.48;;
6467;SDS011;3267;48.794;9.928;2023-02-15T11:13:21;10.75;;;8.98;;
6467;SDS011;3267;48.794;9.928;2023-02-15T11:16:01;17.65;;;8.80;;
6467;SDS011;3267;48.794;9.928;2023-02-15T11:18:36;11.02;;;8.93;;
6467;SDS011;3267;48.794;9.928;2023-02-15T11:23:46;9.57;;;8.55;;
6467;SDS011;3267;48.794;9.928;2023-02-15T11:29:17;11.32;;;8.93;;
6467;SDS011;3267;48.794;9.928;2023-02-15T11:31:51;9.68;;;8.35;;
6467;SDS011;3267;48.794;9.928;2023-02-15T11:37:08;9.75;;;8.45;;
6467;SDS011;3267;48.794;9.928;2023-02-15T11:39:37;9.55;;;8.65;;
6467;SDS011;3267;48.794;9.928;2023-02-15T11:42:09;10.55;;;9.45;;
6467;SDS011;3267;48.794;9.928;2023-02-15T11:44:41;11.57;;;9.27;;
6467;SDS011;3267;48.794;9.928;2023-02-15T11:47:26;10.27;;;8.85;;
6467;SDS011;3267;48.794;9.928;2023-02-15T11:49:52;11.07;;;9.02;;
6467;SDS011;3267;48.794;9.928;2023-02-15T11:52:18;10.55;;;8.73;;
6467;SDS011;3267;48.794;9.928;2023-02-15T11:54:45;10.52;;;8.43;;
6467;SDS011;3267;48.794;9.928;2023-02-15T12:02:34;11.35;;;9.20;;
6467;SDS011;3267;48.794;9.928;2023-02-15T12:05:04;12.88;;;8.93;;
6467;SDS011;3267;48.794;9.928;2023-02-15T12:07:37;9.90;;;8.68;;
6467;SDS011;3267;48.794;9.928;2023-02-15T12:13:08;9.48;;;8.18;;
6467;SDS011;3267;48.794;9.928;2023-02-15T12:15:42;13.52;;;9.23;;
6467;SDS011;3267;48.794;9.928;2023-02-15T12:21:02;9.20;;;8.13;;
6467;SDS011;3267;48.794;9.928;2023-02-15T12:23:32;13.48;;;8.18;;
6467;SDS011;3267;48.794;9.928;2023-02-15T12:25:58;15.00;;;8.05;;
6467;SDS011;3267;48.794;9.928;2023-02-15T12:31:06;9.52;;;7.88;;
6467;SDS011;3267;48.794;9.928;2023-02-15T12:33:44;13.48;;;8.00;;
6467;SDS011;3267;48.794;9.928;2023-02-15T12:36:24;11.10;;;8.10;;
6467;SDS011;3267;48.794;9.928;2023-02-15T12:41:38;9.73;;;7.50;;
6467;SDS011;3267;48.794;9.928;2023-02-15T12:44:16;9.48;;;7.30;;
6467;SDS011;3267;48.794;9.928;2023-02-15T12:46:58;9.15;;;7.07;;
6467;SDS011;3267;48.794;9.928;2023-02-15T12:49:26;10.80;;;8.20;;
6467;SDS011;3267;48.794;9.928;2023-02-15T12:51:57;8.30;;;7.45;;
6467;SDS011;3267;48.794;9.928;2023-02-15T12:56:55;7.30;;;5.78;;
6467;SDS011;3267;48.794;9.928;2023-02-15T12:59:22;10.10;;;6.18;;
6467;SDS011;3267;48.794;9.928;2023-02-15T13:01:48;9.20;;;6.70;;
6467;SDS011;3267;48.794;9.928;2023-02-15T13:07:01;8.23;;;7.18;;
6467;SDS011;3267;48.794;9.928;2023-02-15T13:11:56;10.23;;;6.03;;
6467;SDS011;3267;48.794;9.928;2023-02-15T13:14:35;8.02;;;6.65;;
6467;SDS011;3267;48.794;9.928;2023-02-15T13:17:02;8.75;;;6.45;;
6467;SDS011;3267;48.794;9.928;2023-02-15T13:19:36;8.93;;;7.00;;
6467;SDS011;3267;48.794;9.928;2023-02-15T13:22:06;9.82;;;6.53;;
6467;SDS011;3267;48.794;9.928;2023-02-15T13:27:13;8.13;;;5.85;;
6467;SDS011;3267;48.794;9.928;2023-02-15T13:29:52;8.82;;;6.68;;
6467;SDS011;3267;48.794;9.928;2023-02-15T13:32:36;8.27;;;6.35;;
6467;SDS011;3267;48.794;9.928;2023-02-15T13:35:05;6.80;;;5.68;;
6467;SDS011;3267;48.794;9.928;2023-02-15T13:40:43;7.55;;;5.60;;
6467;SDS011;3267;48.794;9.928;2023-02-15T13:43:23;9.60;;;5.35;;
6467;SDS011;3267;48.794;9.928;2023-02-15T13:49:07;9.48;;;5.65;;
6467;SDS011;3267;48.794;9.928;2023-02-15T13:59:22;7.55;;;5.28;;
6467;SDS011;3267;48.794;9.928;2023-02-15T14:01:57;6.20;;;4.97;;
6467;SDS011;3267;48.794;9.928;2023-02-15T14:15:52;10.10;;;6.40;;
6467;SDS011;3267;48.794;9.928;2023-02-15T14:18:46;6.45;;;5.32;;
6467;SDS011;3267;48.794;9.928;2023-02-15T14:21:21;12.07;;;5.30;;
6467;SDS011;3267;48.794;9.928;2023-02-15T14:26:50;8.88;;;6.82;;
6467;SDS011;3267;48.794;9.928;2023-02-15T14:32:07;8.00;;;6.60;;
6467;SDS011;3267;48.794;9.928;2023-02-15T14:34:50;7.28;;;5.15;;
6467;SDS011;3267;48.794;9.928;2023-02-15T14:45:53;6.43;;;5.18;;
6467;SDS011;3267;48.794;9.928;2023-02-15T14:50:47;14.02;;;9.60;;
6467;SDS011;3267;48.794;9.928;2023-02-15T15:01:32;4.85;;;4.35;;
6467;SDS011;3267;48.794;9.928;2023-02-15T15:03:59;6.40;;;4.15;;
6467;SDS011;3267;48.794;9.928;2023-02-15T15:06:30;17.15;;;9.63;;
6467;SDS011;3267;48.794;9.928;2023-02-15T15:09:39;10.75;;;9.50;;
6467;SDS011;3267;48.794;9.928;2023-02-15T15:11:46;14.10;;;10.43;;
6467;SDS011;3267;48.794;9.928;2023-02-15T15:14:58;8.20;;;6.78;;
6467;SDS011;3267;48.794;9.928;2023-02-15T15:17:00;14.50;;;11.63;;
6467;SDS011;3267;48.794;9.928;2023-02-15T15:22:24;11.90;;;10.60;;
6467;SDS011;3267;48.794;9.928;2023-02-15T15:24:52;6.72;;;5.75;;
6467;SDS011;3267;48.794;9.928;2023-02-15T15:35:26;5.65;;;5.07;;
6467;SDS011;3267;48.794;9.928;2023-02-15T15:40:33;11.95;;;9.27;;
6467;SDS011;3267;48.794;9.928;2023-02-15T15:50:40;7.50;;;5.93;;
6467;SDS011;3267;48.794;9.928;2023-02-15T15:53:07;6.18;;;5.13;;
6467;SDS011;3267;48.794;9.928;2023-02-15T15:55:39;8.48;;;5.07;;
6467;SDS011;3267;48.794;9.928;2023-02-15T15:58:05;8.68;;;4.88;;
6467;SDS011;3267;48.794;9.928;2023-02-15T16:02:58;10.27;;;4.70;;
6467;SDS011;3267;48.794;9.928;2023-02-15T16:05:24;6.70;;;5.88;;
6467;SDS011;3267;48.794;9.928;2023-02-15T16:07:50;10.00;;;5.90;;
6467;SDS011;3267;48.794;9.928;2023-02-15T16:10:27;7.05;;;5.50;;
6467;SDS011;3267;48.794;9.928;2023-02-15T16:12:53;6.18;;;4.68;;
6467;SDS011;3267;48.794;9.928;2023-02-15T16:15:20;7.80;;;5.13;;
6467;SDS011;3267;48.794;9.928;2023-02-15T16:17:49;5.57;;;4.90;;
6467;SDS011;3267;48.794;9.928;2023-02-15T16:20:25;5.93;;;5.30;;
6467;SDS011;3267;48.794;9.928;2023-02-15T16:23:02;5.50;;;5.00;;
6467;SDS011;3267;48.794;9.928;2023-02-15T16:25:35;6.95;;;4.75;;
6467;SDS011;3267;48.794;9.928;2023-02-15T16:28:06;7.70;;;5.43;;
6467;SDS011;3267;48.794;9.928;2023-02-15T16:30:33;9.32;;;5.10;;
6467;SDS011;3267;48.794;9.928;2023-02-15T16:33:11;7.10;;;5.28;;
6467;SDS011;3267;48.794;9.928;2023-02-15T16:35:39;6.13;;;4.97;;
6467;SDS011;3267;48.794;9.928;2023-02-15T16:43:46;7.78;;;4.80;;
6467;SDS011;3267;48.794;9.928;2023-02-15T16:46:27;7.25;;;4.93;;
6467;SDS011;3267;48.794;9.928;2023-02-15T16:48:57;7.22;;;4.60;;
6467;SDS011;3267;48.794;9.928;2023-02-15T16:51:27;9.05;;;5.20;;
6467;SDS011;3267;48.794;9.928;2023-02-15T16:53:55;5.50;;;4.80;;
6467;SDS011;3267;48.794;9.928;2023-02-15T16:56:27;5.28;;;4.45;;
6467;SDS011;3267;48.794;9.928;2023-02-15T16:58:56;8.07;;;5.03;;
6467;SDS011;3267;48.794;9.928;2023-02-15T17:01:24;5.95;;;4.57;;
6467;SDS011;3267;48.794;9.928;2023-02-15T17:04:10;5.25;;;4.43;;
6467;SDS011;3267;48.794;9.928;2023-02-15T17:06:38;6.40;;;5.15;;
6467;SDS011;3267;48.794;9.928;2023-02-15T17:09:04;4.22;;;3.83;;
6467;SDS011;3267;48.794;9.928;2023-02-15T17:11:42;5.05;;;4.13;;
6467;SDS011;3267;48.794;9.928;2023-02-15T17:16:50;6.40;;;4.68;;
6467;SDS011;3267;48.794;9.928;2023-02-15T17:19:31;7.10;;;4.13;;
6467;SDS011;3267;48.794;9.928;2023-02-15T17:22:22;7.68;;;4.00;;
6467;SDS011;3267;48.794;9.928;2023-02-15T17:24:50;8.18;;;4.60;;
6467;SDS011;3267;48.794;9.928;2023-02-15T17:27:24;4.43;;;3.75;;
6467;SDS011;3267;48.794;9.928;2023-02-15T17:30:00;5.95;;;4.70;;
6467;SDS011;3267;48.794;9.928;2023-02-15T17:32:28;5.25;;;4.38;;
6467;SDS011;3267;48.794;9.928;2023-02-15T17:40:25;6.32;;;4.35;;
6467;SDS011;3267;48.794;9.928;2023-02-15T17:42:55;5.90;;;4.45;;
6467;SDS011;3267;48.794;9.928;2023-02-15T17:45:22;5.75;;;4.47;;
6467;SDS011;3267;48.794;9.928;2023-02-15T17:48:01;4.72;;;4.13;;
6467;SDS011;3267;48.794;9.928;2023-02-15T17:50:29;5.07;;;3.97;;
6467;SDS011;3267;48.794;9.928;2023-02-15T17:52:55;8.70;;;5.10;;
6467;SDS011;3267;48.794;9.928;2023-02-15T17:55:23;8.55;;;4.75;;
6467;SDS011;3267;48.794;9.928;2023-02-15T17:58:15;5.93;;;4.57;;
6467;SDS011;3267;48.794;9.928;2023-02-15T18:00:44;5.88;;;5.00;;
6467;SDS011;3267;48.794;9.928;2023-02-15T18:03:40;6.85;;;4.68;;
6467;SDS011;3267;48.794;9.928;2023-02-15T18:06:29;5.68;;;4.43;;
6467;SDS011;3267;48.794;9.928;2023-02-15T18:09:15;6.60;;;4.95;;
6467;SDS011;3267;48.794;9.928;2023-02-15T18:12:01;6.00;;;4.90;;
6467;SDS011;3267;48.794;9.928;2023-02-15T18:14:31;17.55;;;7.90;;
6467;SDS011;3267;48.794;9.928;2023-02-15T18:16:56;8.18;;;5.60;;
6467;SDS011;3267;48.794;9.928;2023-02-15T18:19:25;9.43;;;5.93;;
6467;SDS011;3267;48.794;9.928;2023-02-15T18:21:54;5.30;;;4.63;;
6467;SDS011;3267;48.794;9.928;2023-02-15T18:24:23;6.88;;;4.25;;
6467;SDS011;3267;48.794;9.928;2023-02-15T18:26:51;6.05;;;4.05;;
6467;SDS011;3267;48.794;9.928;2023-02-15T18:29:17;7.15;;;4.55;;
6467;SDS011;3267;48.794;9.928;2023-02-15T18:31:44;3.83;;;3.47;;
6467;SDS011;3267;48.794;9.928;2023-02-15T18:34:28;6.47;;;4.88;;
6467;SDS011;3267;48.794;9.928;2023-02-15T18:36:57;6.30;;;4.30;;
6467;SDS011;3267;48.794;9.928;2023-02-15T18:42:01;6.85;;;4.25;;
6467;SDS011;3267;48.794;9.928;2023-02-15T18:44:27;9.25;;;4.85;;
6467;SDS011;3267;48.794;9.928;2023-02-15T18:46:54;6.78;;;4.55;;
6467;SDS011;3267;48.794;9.928;2023-02-15T18:49:19;4.40;;;3.97;;
6467;SDS011;3267;48.794;9.928;2023-02-15T18:51:45;6.85;;;5.32;;
6467;SDS011;3267;48.794;9.928;2023-02-15T18:54:18;5.82;;;4.63;;
6467;SDS011;3267;48.794;9.928;2023-02-15T18:56:48;5.60;;;5.03;;
6467;SDS011;3267;48.794;9.928;2023-02-15T18:59:19;6.63;;;4.88;;
6467;SDS011;3267;48.794;9.928;2023-02-15T19:01:46;6.65;;;5.93;;
6467;SDS011;3267;48.794;9.928;2023-02-15T19:04:12;6.28;;;5.47;;
6467;SDS011;3267;48.794;9.928;2023-02-15T19:06:39;6.25;;;5.30;;
6467;SDS011;3267;48.794;9.928;2023-02-15T19:09:11;6.05;;;5.15;;
6467;SDS011;3267;48.794;9.928;2023-02-15T19:11:45;11.27;;;6.10;;
6467;SDS011;3267;48.794;9.928;2023-02-15T19:14:21;6.85;;;5.28;;
6467;SDS011;3267;48.794;9.928;2023-02-15T19:16:49;6.60;;;4.85;;
6467;SDS011;3267;48.794;9.928;2023-02-15T19:19:15;6.35;;;4.35;;
6467;SDS011;3267;48.794;9.928;2023-02-15T19:21:41;6.80;;;5.43;;
6467;SDS011;3267;48.794;9.928;2023-02-15T19:24:07;9.23;;;5.07;;
6467;SDS011;3267;48.794;9.928;2023-02-15T19:26:44;6.25;;;5.15;;
6467;SDS011;3267;48.794;9.928;2023-02-15T19:29:11;6.68;;;4.68;;
6467;SDS011;3267;48.794;9.928;2023-02-15T19:31:38;5.80;;;5.20;;
6467;SDS011;3267;48.794;9.928;2023-02-15T19:34:14;7.57;;;5.05;;
6467;SDS011;3267;48.794;9.928;2023-02-15T19:36:44;8.30;;;4.63;;
6467;SDS011;3267;48.794;9.928;2023-02-15T19:41:51;4.72;;;4.22;;
6467;SDS011;3267;48.794;9.928;2023-02-15T19:44:17;6.72;;;5.35;;
6467;SDS011;3267;48.794;9.928;2023-02-15T19:46:43;7.50;;;4.78;;
6467;SDS011;3267;48.794;9.928;2023-02-15T19:49:10;5.53;;;4.95;;
6467;SDS011;3267;48.794;9.928;2023-02-15T19:51:35;7.03;;;4.80;;
6467;SDS011;3267;48.794;9.928;2023-02-15T19:54:03;5.68;;;4.72;;
6467;SDS011;3267;48.794;9.928;2023-02-15T19:56:51;4.97;;;4.47;;
6467;SDS011;3267;48.794;9.928;2023-02-15T19:59:19;5.00;;;4.32;;
6467;SDS011;3267;48.794;9.928;2023-02-15T20:01:54;6.50;;;4.75;;
6467;SDS011;3267;48.794;9.928;2023-02-15T20:04:20;5.00;;;4.57;;
6467;SDS011;3267;48.794;9.928;2023-02-15T20:06:46;5.85;;;4.57;;
6467;SDS011;3267;48.794;9.928;2023-02-15T20:09:23;8.88;;;5.00;;
6467;SDS011;3267;48.794;9.928;2023-02-15T20:11:52;4.78;;;4.35;;
6467;SDS011;3267;48.794;9.928;2023-02-15T20:14:18;7.00;;;4.60;;
6467;SDS011;3267;48.794;9.928;2023-02-15T20:16:45;6.43;;;4.82;;
6467;SDS011;3267;48.794;9.928;2023-02-15T20:19:10;5.85;;;4.03;;
6467;SDS011;3267;48.794;9.928;2023-02-15T20:21:37;6.97;;;5.05;;
6467;SDS011;3267;48.794;9.928;2023-02-15T20:24:04;6.25;;;5.32;;
6467;SDS011;3267;48.794;9.928;2023-02-15T20:26:31;6.72;;;4.63;;
6467;SDS011;3267;48.794;9.928;2023-02-15T20:29:00;5.00;;;4.40;;
6467;SDS011;3267;48.794;9.928;2023-02-15T20:31:26;8.90;;;6.65;;
6467;SDS011;3267;48.794;9.928;2023-02-15T20:33:52;13.30;;;7.50;;
6467;SDS011;3267;48.794;9.928;2023-02-15T20:36:18;19.23;;;12.98;;
6467;SDS011;3267;48.794;9.928;2023-02-15T20:38:45;29.67;;;19.45;;
6467;SDS011;3267;48.794;9.928;2023-02-15T20:41:12;9.90;;;6.93;;
6467;SDS011;3267;48.794;9.928;2023-02-15T20:43:58;8.77;;;6.40;;
6467;SDS011;3267;48.794;9.928;2023-02-15T20:46:24;6.88;;;5.07;;
6467;SDS011;3267;48.794;9.928;2023-02-15T20:48:50;5.70;;;4.50;;
6467;SDS011;3267;48.794;9.928;2023-02-15T20:51:16;6.88;;;5.18;;
6467;SDS011;3267;48.794;9.928;2023-02-15T20:53:46;6.97;;;4.32;;
6467;SDS011;3267;48.794;9.928;2023-02-15T20:56:22;7.85;;;4.82;;
6467;SDS011;3267;48.794;9.928;2023-02-15T20:58:49;5.50;;;4.95;;
6467;SDS011;3267;48.794;9.928;2023-02-15T21:01:16;6.88;;;4.75;;
6467;SDS011;3267;48.794;9.928;2023-02-15T21:03:43;7.07;;;4.93;;
6467;SDS011;3267;48.794;9.928;2023-02-15T21:06:11;5.40;;;4.88;;
6467;SDS011;3267;48.794;9.928;2023-02-15T21:08:39;7.28;;;5.53;;
6467;SDS011;3267;48.794;9.928;2023-02-15T21:11:04;7.13;;;5.60;;
6467;SDS011;3267;48.794;9.928;2023-02-15T21:13:47;6.68;;;5.03;;
6467;SDS011;3267;48.794;9.928;2023-02-15T21:16:14;6.18;;;5.13;;
6467;SDS011;3267;48.794;9.928;2023-02-15T21:18:40;6.05;;;5.30;;
6467;SDS011;3267;48.794;9.928;2023-02-15T21:21:08;5.20;;;4.65;;
6467;SDS011;3267;48.794;9.928;2023-02-15T21:23:40;7.05;;;5.38;;
6467;SDS011;3267;48.794;9.928;2023-02-15T21:26:12;6.43;;;5.38;;
6467;SDS011;3267;48.794;9.928;2023-02-15T21:28:48;6.78;;;4.53;;
6467;SDS011;3267;48.794;9.928;2023-02-15T21:31:21;12.40;;;7.68;;
6467;SDS011;3267;48.794;9.928;2023-02-15T21:33:49;12.70;;;7.97;;
6467;SDS011;3267;48.794;9.928;2023-02-15T21:36:15;8.10;;;4.90;;
6467;SDS011;3267;48.794;9.928;2023-02-15T21:38:45;13.43;;;4.88;;
6467;SDS011;3267;48.794;9.928;2023-02-15T21:41:16;8.52;;;4.43;;
6467;SDS011;3267;48.794;9.928;2023-02-15T21:44:01;18.40;;;12.05;;
6467;SDS011;3267;48.794;9.928;2023-02-15T21:46:45;4.57;;;3.80;;
6467;SDS011;3267;48.794;9.928;2023-02-15T21:49:30;6.40;;;4.90;;
6467;SDS011;3267;48.794;9.928;2023-02-15T21:51:55;12.80;;;8.52;;
6467;SDS011;3267;48.794;9.928;2023-02-15T21:54:37;19.15;;;10.85;;
6467;SDS011;3267;48.794;9.928;2023-02-15T21:57:03;9.30;;;6.65;;
6467;SDS011;3267;48.794;9.928;2023-02-15T21:59:29;4.90;;;3.88;;
6467;SDS011;3267;48.794;9.928;2023-02-15T22:01:55;6.00;;;4.85;;
6467;SDS011;3267;48.794;9.928;2023-02-15T22:04:24;10.88;;;6.97;;
6467;SDS011;3267;48.794;9.928;2023-02-15T22:06:52;10.43;;;6.05;;
6467;SDS011;3267;48.794;9.928;2023-02-15T22:09:18;22.40;;;13.77;;
6467;SDS011;3267;48.794;9.928;2023-02-15T22:11:46;7.38;;;4.38;;
6467;SDS011;3267;48.794;9.928;2023-02-15T22:19:43;5.63;;;3.75;;
6467;SDS011;3267;48.794;9.928;2023-02-15T22:22:10;16.80;;;10.25;;
6467;SDS011;3267;48.794;9.928;2023-02-15T22:24:36;26.50;;;16.40;;
6467;SDS011;3267;48.794;9.928;2023-02-15T22:27:05;24.33;;;11.95;;
6467;SDS011;3267;48.794;9.928;2023-02-15T22:29:31;10.55;;;6.70;;
